Time;durP1;ratioP1;P1;durP2;ratioP2;P2;SDS_P1;SDS_P2;PMS_P1;PMS_P2;Temp;Humidity;BMP_temperature;BMP_pressure;BME280_temperature;BME280_humidity;BME280_pressure;Samples;Min_cycle;Max_cycle;Signal;HPM_P1;HPM_P2
2022/11/21 00:02:27;;;;;;;19.88;12.10;;;3.30;99.90;;;;;;5036020;28;20056;-84
2022/11/21 00:04:59;;;;;;;20.20;11.77;;;0.80;99.90;;;;;;5003343;28;20402;-82
2022/11/21 00:07:24;;;;;;;20.33;11.75;;;3.80;99.90;;;;;;5018290;28;20188;-83
2022/11/21 00:09:59;;;;;;;19.73;12.13;;;3.40;99.90;;;;;;5045534;28;20029;-82
2022/11/21 00:12:38;;;;;;;20.10;12.32;;;2.00;99.90;;;;;;5019671;28;20041;-83
2022/11/21 00:15:04;;;;;;;21.25;11.88;;;2.70;99.90;;;;;;5082100;28;20025;-83
2022/11/21 00:17:42;;;;;;;19.15;10.40;;;0.80;99.90;;;;;;5067842;28;20088;-81
2022/11/21 00:20:08;;;;;;;19.20;11.70;;;1.00;99.90;;;;;;5082009;28;20039;-82
2022/11/21 00:22:36;;;;;;;19.15;12.48;;;0.80;99.90;;;;;;5053917;28;20032;-81
2022/11/21 00:25:06;;;;;;;18.42;11.75;;;1.10;99.90;;;;;;5052193;28;20025;-80
2022/11/21 00:31:35;;;;;;;19.92;12.55;;;1.40;99.90;;;;;;5018749;28;20037;-81
2022/11/21 00:34:01;;;;;;;20.02;12.10;;;2.60;99.90;;;;;;5049271;28;20043;-83
2022/11/21 00:36:27;;;;;;;19.42;11.40;;;2.20;99.90;;;;;;5045557;28;20045;-81
2022/11/21 00:38:52;;;;;;;20.45;12.40;;;1.50;99.90;;;;;;5074732;28;20033;-81
2022/11/21 00:41:18;;;;;;;19.75;12.88;;;2.60;99.90;;;;;;5058748;28;20048;-81
2022/11/21 00:43:44;;;;;;;18.10;11.13;;;3.10;99.90;;;;;;5047249;28;20086;-83
2022/11/21 00:46:10;;;;;;;19.88;12.82;;;3.20;99.90;;;;;;5063909;28;20033;-82
2022/11/21 00:48:35;;;;;;;18.60;12.00;;;3.40;99.90;;;;;;5056218;28;20069;-82
2022/11/21 00:51:01;;;;;;;19.85;12.00;;;3.20;99.90;;;;;;5053826;28;20108;-81
2022/11/21 00:53:28;;;;;;;22.90;12.05;;;3.40;99.90;;;;;;5027158;28;20041;-80
2022/11/21 00:55:54;;;;;;;19.85;11.98;;;3.50;99.90;;;;;;5038934;28;20043;-80
2022/11/21 00:58:22;;;;;;;19.88;11.48;;;0.70;99.90;;;;;;5027622;28;20029;-84
2022/11/21 01:01:12;;;;;;;18.23;11.27;;;0.70;99.90;;;;;;5033781;28;20079;-82
2022/11/21 01:03:41;;;;;;;19.63;12.00;;;1.00;99.90;;;;;;5077605;28;20033;-84
2022/11/21 01:06:09;;;;;;;19.77;11.75;;;1.90;99.90;;;;;;5088922;28;20033;-82
2022/11/21 01:08:37;;;;;;;19.40;11.95;;;2.60;99.90;;;;;;5060183;28;20067;-81
2022/11/21 01:11:13;;;;;;;19.33;12.18;;;0.30;99.90;;;;;;5058554;28;20033;-83
2022/11/21 01:13:40;;;;;;;22.83;12.18;;;0.10;99.90;;;;;;5065944;28;20024;-85
2022/11/21 01:16:11;;;;;;;19.90;12.68;;;1.70;99.90;;;;;;5063268;28;20024;-81
2022/11/21 01:18:37;;;;;;;22.20;12.98;;;1.60;99.90;;;;;;5061837;28;20073;-84
2022/11/21 01:21:05;;;;;;;17.38;11.40;;;2.80;99.90;;;;;;5065954;28;20036;-82
2022/11/21 01:23:31;;;;;;;20.05;12.13;;;2.30;99.90;;;;;;5083727;28;20090;-83
2022/11/21 01:26:08;;;;;;;20.98;11.65;;;2.60;99.90;;;;;;5078208;28;20058;-84
2022/11/21 01:28:34;;;;;;;21.65;12.05;;;0.30;99.90;;;;;;5065895;28;20020;-83
2022/11/21 01:31:35;;;;;;;18.75;11.82;;;1.30;99.90;;;;;;5072321;28;20280;-83
2022/11/21 01:34:01;;;;;;;21.10;12.57;;;2.10;99.90;;;;;;5025215;28;20029;-83
2022/11/21 01:36:31;;;;;;;20.42;12.15;;;2.50;99.90;;;;;;5087804;28;20047;-83
2022/11/21 01:39:00;;;;;;;21.20;13.02;;;1.30;99.90;;;;;;5043545;28;20054;-81
2022/11/21 01:45:28;;;;;;;20.33;12.52;;;-0.40;99.90;;;;;;5054386;28;20045;-82
2022/11/21 01:48:32;;;;;;;19.92;12.40;;;1.40;99.90;;;;;;4943240;29;20051;-81
2022/11/21 01:51:30;;;;;;;22.92;13.48;;;0.20;99.90;;;;;;4934682;29;20051;-81
2022/11/21 01:54:31;;;;;;;22.98;14.40;;;1.50;99.90;;;;;;4997759;28;20931;-81
2022/11/21 01:57:05;;;;;;;23.25;12.93;;;-0.20;99.90;;;;;;5060200;28;20242;-81
2022/11/21 01:59:45;;;;;;;24.40;14.52;;;-0.20;99.90;;;;;;5050015;28;20041;-81
2022/11/21 02:02:13;;;;;;;22.42;13.75;;;-0.30;99.90;;;;;;5058390;28;20036;-80
2022/11/21 02:05:07;;;;;;;23.73;15.73;;;0.50;99.90;;;;;;5057513;28;20450;-82
2022/11/21 02:07:37;;;;;;;30.17;18.30;;;-0.20;99.90;;;;;;5067529;28;20041;-80
2022/11/21 02:10:03;;;;;;;27.90;16.23;;;2.20;99.90;;;;;;5052893;28;20028;-80
2022/11/21 02:12:41;;;;;;;28.15;16.98;;;-0.20;99.90;;;;;;5082541;28;20083;-80
2022/11/21 02:15:08;;;;;;;28.77;17.42;;;0.30;99.90;;;;;;5075205;28;20055;-81
2022/11/21 02:17:33;;;;;;;31.00;19.90;;;-0.10;99.90;;;;;;5040749;28;20621;-80
2022/11/21 02:20:53;;;;;;;31.30;19.25;;;2.40;99.90;;;;;;5076789;28;20028;-81
2022/11/21 02:23:24;;;;;;;26.17;14.75;;;1.10;99.90;;;;;;5064106;28;20055;-79
2022/11/21 02:25:51;;;;;;;26.52;16.02;;;-0.30;99.90;;;;;;5051168;28;20036;-80
2022/11/21 02:28:22;;;;;;;23.10;15.48;;;2.70;99.90;;;;;;5029061;28;20047;-82
2022/11/21 02:30:48;;;;;;;24.35;15.02;;;-0.20;99.90;;;;;;5052559;28;20060;-83
2022/11/21 02:33:14;;;;;;;25.30;15.05;;;1.30;99.90;;;;;;5070211;28;20044;-83
2022/11/21 02:35:40;;;;;;;27.40;16.90;;;1.90;99.90;;;;;;5066176;28;20100;-83
2022/11/21 02:38:25;;;;;;;25.70;15.82;;;1.50;99.90;;;;;;5065940;28;20056;-80
2022/11/21 02:41:03;;;;;;;25.90;16.48;;;-0.50;99.90;;;;;;5046439;28;20200;-81
2022/11/21 02:43:45;;;;;;;24.10;15.50;;;-0.40;99.90;;;;;;5062929;28;20104;-82
2022/11/21 02:46:11;;;;;;;29.08;17.27;;;-1.30;99.90;;;;;;5057945;28;20102;-81
2022/11/21 02:48:37;;;;;;;25.77;15.98;;;1.70;99.90;;;;;;5044364;28;20331;-80
2022/11/21 02:51:03;;;;;;;23.42;14.65;;;1.10;99.90;;;;;;5090742;28;20041;-82
2022/11/21 02:53:29;;;;;;;23.45;14.93;;;0.50;99.90;;;;;;5064076;28;20399;-81
2022/11/21 02:55:55;;;;;;;22.75;14.38;;;-0.30;99.90;;;;;;5062228;28;20024;-82
2022/11/21 02:58:21;;;;;;;25.58;16.02;;;2.00;99.90;;;;;;5090584;28;20028;-81
2022/11/21 03:00:46;;;;;;;27.00;17.08;;;-0.50;99.90;;;;;;5061917;28;20025;-81
2022/11/21 03:03:13;;;;;;;23.73;14.27;;;1.50;99.90;;;;;;5029369;28;20099;-83
2022/11/21 03:05:39;;;;;;;26.70;15.60;;;1.50;99.90;;;;;;5049153;28;20060;-81
2022/11/21 03:08:05;;;;;;;23.48;13.95;;;2.00;99.90;;;;;;5085618;28;20092;-81
2022/11/21 03:10:31;;;;;;;27.67;15.23;;;-0.40;99.90;;;;;;5069198;28;20048;-80
2022/11/21 03:13:00;;;;;;;27.38;16.20;;;1.10;99.90;;;;;;5049885;28;20024;-80
2022/11/21 03:15:32;;;;;;;23.83;15.50;;;-0.40;99.90;;;;;;5064366;28;21291;-80
2022/11/21 03:18:00;;;;;;;24.77;15.38;;;0.20;99.90;;;;;;5060220;28;20036;-80
2022/11/21 03:20:25;;;;;;;22.52;14.52;;;1.30;99.90;;;;;;5052679;28;20075;-77
2022/11/21 03:22:52;;;;;;;30.45;17.85;;;-0.40;99.90;;;;;;5034285;28;20036;-80
2022/11/21 03:25:18;;;;;;;29.52;18.90;;;-0.30;99.90;;;;;;5061993;28;20105;-78
2022/11/21 03:27:44;;;;;;;31.65;18.13;;;-0.30;99.90;;;;;;5046569;28;20036;-78
2022/11/21 03:30:14;;;;;;;27.60;16.75;;;1.80;99.90;;;;;;5044040;28;20067;-81
2022/11/21 03:32:40;;;;;;;28.17;17.52;;;-0.40;99.90;;;;;;5041148;28;20031;-78
2022/11/21 03:35:05;;;;;;;26.20;15.98;;;1.10;99.90;;;;;;5034654;28;20036;-77
2022/11/21 03:37:31;;;;;;;26.25;15.98;;;-0.50;99.90;;;;;;5069806;28;20235;-78
2022/11/21 03:39:57;;;;;;;26.80;15.80;;;-0.60;99.90;;;;;;5049072;28;20036;-79
2022/11/21 03:42:22;;;;;;;28.50;17.30;;;1.70;99.90;;;;;;5046218;28;20061;-78
2022/11/21 03:44:48;;;;;;;26.05;16.17;;;-0.60;99.90;;;;;;5059722;28;20040;-77
2022/11/21 03:47:14;;;;;;;25.60;15.60;;;-0.60;99.90;;;;;;5048698;28;20036;-78
2022/11/21 03:49:39;;;;;;;24.48;15.77;;;-0.60;99.90;;;;;;5040204;28;20037;-78
2022/11/21 03:52:05;;;;;;;26.27;16.40;;;-0.60;99.90;;;;;;5047929;28;20061;-79
2022/11/21 03:54:31;;;;;;;24.83;15.68;;;1.60;99.90;;;;;;5047694;28;20059;-78
2022/11/21 03:56:56;;;;;;;32.65;17.50;;;-0.60;99.90;;;;;;5061615;28;20028;-79
2022/11/21 03:59:22;;;;;;;39.25;21.08;;;-0.50;99.90;;;;;;5049206;28;20036;-78
2022/11/21 04:01:51;;;;;;;31.65;18.85;;;-0.40;99.90;;;;;;5083927;28;20302;-78
2022/11/21 04:04:19;;;;;;;35.97;22.15;;;-0.40;99.90;;;;;;5063036;28;20028;-78
2022/11/21 04:06:45;;;;;;;37.72;22.60;;;0.20;99.90;;;;;;5046188;28;20037;-79
2022/11/21 04:09:11;;;;;;;42.75;24.48;;;2.30;99.90;;;;;;5054560;28;20090;-77
2022/11/21 04:11:36;;;;;;;39.05;23.33;;;0.70;99.90;;;;;;5050574;28;20025;-78
2022/11/21 04:14:02;;;;;;;37.83;21.00;;;0.00;99.90;;;;;;5083620;28;20036;-77
2022/11/21 04:16:28;;;;;;;35.63;20.13;;;2.00;99.90;;;;;;5055041;28;20222;-79
2022/11/21 04:18:53;;;;;;;36.90;21.70;;;0.00;99.90;;;;;;5034036;28;20060;-79
2022/11/21 04:21:19;;;;;;;37.03;20.33;;;1.40;99.90;;;;;;5058547;28;20085;-78
2022/11/21 04:23:45;;;;;;;36.90;22.45;;;2.40;99.90;;;;;;5042752;28;20034;-77
2022/11/21 04:26:11;;;;;;;35.67;21.88;;;0.00;99.90;;;;;;5036567;28;20219;-79
2022/11/21 04:28:37;;;;;;;41.03;23.77;;;2.00;99.90;;;;;;5060839;28;20037;-77
2022/11/21 04:31:04;;;;;;;36.25;22.77;;;0.00;99.90;;;;;;5092438;28;20032;-79
2022/11/21 04:34:02;;;;;;;;;;;;;;;;;;;;;
2022/11/21 04:36:37;;;;;;;36.13;21.27;;;0.30;99.90;;;;;;5051307;28;20037;-79
2022/11/21 04:39:03;;;;;;;32.17;19.75;;;2.40;99.90;;;;;;5061080;28;20021;-77
2022/11/21 04:41:29;;;;;;;33.85;19.63;;;2.60;99.90;;;;;;5040691;28;20281;-78
2022/11/21 04:43:54;;;;;;;28.38;18.45;;;2.70;99.90;;;;;;5056734;28;20061;-80
2022/11/21 04:46:20;;;;;;;32.42;19.65;;;0.20;99.90;;;;;;5039901;28;20032;-79
2022/11/21 04:48:46;;;;;;;32.42;19.42;;;0.20;99.90;;;;;;5041779;28;20100;-78
2022/11/21 04:51:11;;;;;;;33.20;19.30;;;1.30;99.90;;;;;;5063774;28;20079;-79
2022/11/21 04:53:39;;;;;;;32.08;18.35;;;0.30;99.90;;;;;;5048750;28;20036;-79
2022/11/21 04:56:06;;;;;;;35.35;19.60;;;2.50;99.90;;;;;;5065026;28;20071;-79
2022/11/21 04:58:49;;;;;;;33.42;20.52;;;1.10;99.90;;;;;;5047937;28;20025;-80
2022/11/21 05:01:16;;;;;;;30.17;19.20;;;;;;;;;;5061778;28;20033;-80
2022/11/21 05:03:41;;;;;;;33.28;19.85;;;0.40;99.90;;;;;;5084100;28;20087;-79
2022/11/21 05:06:07;;;;;;;29.05;17.40;;;3.20;99.90;;;;;;5030516;28;20070;-79
2022/11/21 05:08:33;;;;;;;33.22;19.30;;;0.80;99.90;;;;;;5049405;28;20084;-81
2022/11/21 05:13:43;;;;;;;31.58;18.95;;;0.40;99.90;;;;;;5076925;28;20060;-81
2022/11/21 05:16:09;;;;;;;36.60;18.95;;;0.30;99.90;;;;;;5030083;28;20025;-79
2022/11/21 05:18:35;;;;;;;31.98;18.20;;;1.80;99.90;;;;;;5072602;28;20296;-80
2022/11/21 05:21:01;;;;;;;33.45;19.15;;;0.10;99.90;;;;;;5089243;28;20021;-80
2022/11/21 05:23:27;;;;;;;31.42;18.23;;;2.70;99.90;;;;;;5088936;28;20366;-79
2022/11/21 05:25:53;;;;;;;31.75;16.23;;;0.00;99.90;;;;;;5042054;28;20029;-80
2022/11/21 05:28:18;;;;;;;31.08;18.20;;;0.50;99.90;;;;;;5044658;28;20283;-78
2022/11/21 05:30:44;;;;;;;26.65;16.75;;;-0.10;99.90;;;;;;5053932;28;20192;-79
2022/11/21 05:33:10;;;;;;;32.90;19.67;;;-0.10;99.90;;;;;;5064385;28;20039;-78
2022/11/21 05:35:37;;;;;;;35.42;21.50;;;-0.10;99.90;;;;;;5063333;28;20025;-77
2022/11/21 05:38:04;;;;;;;36.17;20.63;;;2.40;99.90;;;;;;5076568;28;21290;-78
2022/11/21 05:40:31;;;;;;;30.85;17.73;;;0.10;99.90;;;;;;5049768;28;20056;-77
2022/11/21 05:45:40;;;;;;;34.65;18.92;;;-0.20;99.90;;;;;;5049067;28;20249;-78
2022/11/21 05:48:06;;;;;;;31.60;18.85;;;-0.30;99.90;;;;;;5069936;28;20025;-77
2022/11/21 05:50:34;;;;;;;38.17;20.17;;;1.80;99.90;;;;;;5042197;28;20049;-76
2022/11/21 05:53:04;;;;;;;31.95;17.20;;;1.30;99.90;;;;;;5081154;28;20040;-79
2022/11/21 05:55:32;;;;;;;32.38;18.80;;;-0.30;99.90;;;;;;5054206;28;20025;-79
2022/11/21 05:57:59;;;;;;;32.50;20.38;;;-0.40;99.90;;;;;;5052976;28;20086;-78
2022/11/21 06:00:25;;;;;;;32.92;19.73;;;1.90;99.90;;;;;;5104327;28;20047;-78
2022/11/21 06:05:35;;;;;;;31.02;17.77;;;2.40;99.90;;;;;;5051657;28;20056;-78
2022/11/21 06:08:04;;;;;;;31.17;19.48;;;-0.50;99.90;;;;;;5051859;28;20091;-78
2022/11/21 06:10:29;;;;;;;30.45;17.52;;;1.90;99.90;;;;;;5024982;28;20025;-79
2022/11/21 06:12:59;;;;;;;36.95;19.45;;;-0.50;99.90;;;;;;5063140;28;20112;-78
2022/11/21 06:15:25;;;;;;;35.10;19.65;;;-0.60;99.90;;;;;;5066791;28;20040;-78
2022/11/21 06:17:51;;;;;;;34.47;17.95;;;2.20;99.90;;;;;;5080493;28;20388;-78
2022/11/21 06:20:17;;;;;;;28.83;17.58;;;-0.10;99.90;;;;;;5074392;28;20056;-78
2022/11/21 06:22:42;;;;;;;31.58;18.98;;;-0.60;99.90;;;;;;5065560;28;20025;-77
2022/11/21 06:25:08;;;;;;;36.17;20.25;;;-0.70;99.90;;;;;;5053229;28;20047;-78
2022/11/21 06:27:34;;;;;;;33.53;18.70;;;-0.60;99.90;;;;;;5045918;28;20152;-77
2022/11/21 06:29:59;;;;;;;36.20;20.65;;;-0.60;99.90;;;;;;5047410;28;20029;-77
2022/11/21 06:32:25;;;;;;;34.47;19.77;;;-0.50;99.90;;;;;;5056877;28;20024;-77
2022/11/21 06:34:51;;;;;;;32.58;18.60;;;0.30;99.90;;;;;;5091093;28;20033;-77
2022/11/21 06:37:16;;;;;;;30.95;17.48;;;1.30;99.90;;;;;;5069688;28;20049;-78
2022/11/21 06:39:42;;;;;;;36.47;21.10;;;0.30;99.90;;;;;;5038310;28;20044;-78
2022/11/21 06:42:08;;;;;;;33.28;17.55;;;-0.70;99.90;;;;;;5062516;28;20079;-76
2022/11/21 06:44:33;;;;;;;33.28;18.17;;;-0.60;99.90;;;;;;5051190;28;20033;-77
2022/11/21 06:46:59;;;;;;;33.30;18.08;;;1.80;99.90;;;;;;5082345;28;20036;-77
2022/11/21 06:49:25;;;;;;;32.05;18.20;;;-0.60;99.90;;;;;;5046761;28;20060;-79
2022/11/21 06:51:51;;;;;;;31.27;18.50;;;-0.60;99.90;;;;;;5063247;28;20079;-78
2022/11/21 06:54:17;;;;;;;32.00;17.88;;;-0.30;99.90;;;;;;5053823;28;20155;-76
2022/11/21 06:56:45;;;;;;;33.33;17.90;;;2.00;99.90;;;;;;5086870;28;20035;-78
2022/11/21 06:59:11;;;;;;;37.00;19.05;;;-0.50;99.90;;;;;;5072593;28;20041;-79
2022/11/21 07:01:37;;;;;;;36.83;18.63;;;2.20;99.90;;;;;;5050247;28;20576;-78
2022/11/21 07:04:02;;;;;;;34.78;19.95;;;1.20;99.90;;;;;;5080103;28;20044;-77
2022/11/21 07:06:28;;;;;;;36.83;19.17;;;-0.50;99.90;;;;;;5057041;28;20040;-73
2022/11/21 07:08:54;;;;;;;35.60;18.80;;;-0.50;99.90;;;;;;5067256;28;20032;-77
2022/11/21 07:11:20;;;;;;;35.30;18.85;;;-0.60;99.90;;;;;;5052904;28;20060;-73
2022/11/21 07:13:45;;;;;;;35.55;19.50;;;-0.50;99.90;;;;;;5062225;28;20032;-76
2022/11/21 07:16:13;;;;;;;39.35;22.10;;;-0.50;99.90;;;;;;5048691;28;20050;-77
2022/11/21 07:18:39;;;;;;;40.83;20.08;;;-0.50;99.90;;;;;;5080494;28;20055;-79
2022/11/21 07:21:06;;;;;;;34.30;18.63;;;-0.50;99.90;;;;;;5063842;28;20310;-76
2022/11/21 07:23:33;;;;;;;31.27;18.23;;;-0.50;99.90;;;;;;5061978;28;20051;-78
2022/11/21 07:26:00;;;;;;;34.60;19.60;;;-0.50;99.90;;;;;;5061813;28;20111;-78
2022/11/21 07:28:30;;;;;;;42.13;20.70;;;-0.40;99.90;;;;;;5079233;28;20040;-78
2022/11/21 07:30:57;;;;;;;36.80;19.88;;;-0.40;99.90;;;;;;5077756;28;20179;-79
2022/11/21 07:33:22;;;;;;;36.65;20.67;;;-0.40;99.90;;;;;;5041645;28;20294;-76
2022/11/21 07:35:48;;;;;;;39.88;21.83;;;2.00;99.90;;;;;;5056510;28;20037;-79
2022/11/21 07:38:14;;;;;;;39.50;20.20;;;-0.40;99.90;;;;;;5046344;28;22067;-78
2022/11/21 07:40:39;;;;;;;40.00;19.88;;;-0.30;99.90;;;;;;5045197;28;20035;-78
2022/11/21 07:43:05;;;;;;;37.08;20.55;;;-0.30;99.90;;;;;;5061772;28;20028;-78
2022/11/21 07:45:32;;;;;;;34.75;18.90;;;-0.20;99.90;;;;;;5061812;28;20032;-77
2022/11/21 07:48:03;;;;;;;36.10;20.45;;;-0.20;99.90;;;;;;5056021;28;20040;-78
2022/11/21 07:50:31;;;;;;;40.17;21.25;;;0.30;99.90;;;;;;5093997;28;20055;-77
2022/11/21 07:53:01;;;;;;;36.80;20.02;;;-0.10;99.90;;;;;;5042585;28;20044;-77
2022/11/21 07:55:31;;;;;;;37.30;21.25;;;-0.10;99.90;;;;;;5095405;28;20047;-78
2022/11/21 07:58:01;;;;;;;35.13;20.70;;;-0.10;99.90;;;;;;5051530;28;20359;-77
2022/11/21 08:00:28;;;;;;;39.05;22.55;;;0.00;99.90;;;;;;5053855;28;20328;-78
2022/11/21 08:02:53;;;;;;;38.45;22.20;;;1.40;99.90;;;;;;5033956;28;20064;-79
2022/11/21 08:05:19;;;;;;;45.50;25.75;;;0.70;99.90;;;;;;5042829;28;20036;-79
2022/11/21 08:07:45;;;;;;;43.83;24.48;;;2.50;99.90;;;;;;5046979;28;20078;-78
2022/11/21 08:10:10;;;;;;;45.08;26.40;;;2.60;99.90;;;;;;5072146;28;20039;-78
2022/11/21 08:12:36;;;;;;;39.25;23.40;;;3.10;99.90;;;;;;5062818;28;20055;-79
2022/11/21 08:15:05;;;;;;;40.90;23.17;;;0.60;99.90;;;;;;5043188;28;20043;-79
2022/11/21 08:17:31;;;;;;;38.97;21.55;;;0.80;99.90;;;;;;5063527;28;20052;-79
2022/11/21 08:20:07;;;;;;;33.15;20.73;;;0.80;99.90;;;;;;5082107;28;20425;-77
2022/11/21 08:22:40;;;;;;;31.65;19.65;;;1.10;99.90;;;;;;5082048;28;20198;-79
2022/11/21 08:25:07;;;;;;;39.58;20.85;;;1.30;99.90;;;;;;5062741;28;20036;-77
2022/11/21 08:27:33;;;;;;;29.60;18.95;;;1.40;99.90;;;;;;5077122;28;20104;-77
2022/11/21 08:29:59;;;;;;;30.98;16.88;;;1.60;99.90;;;;;;5050410;28;20027;-79
2022/11/21 08:32:28;;;;;;;32.33;18.15;;;4.00;99.90;;;;;;5046119;28;20025;-78
2022/11/21 08:34:53;;;;;;;29.05;18.25;;;4.20;99.90;;;;;;5050346;28;20201;-77
2022/11/21 08:37:19;;;;;;;30.17;17.83;;;3.60;99.90;;;;;;5065473;28;20077;-77
2022/11/21 08:39:51;;;;;;;27.98;16.95;;;1.70;99.90;;;;;;5053820;28;20029;-78
2022/11/21 08:42:17;;;;;;;27.98;16.73;;;1.90;99.90;;;;;;5087789;28;20029;-79
2022/11/21 08:44:42;;;;;;;39.92;21.63;;;3.00;99.90;;;;;;5067210;28;20200;-77
2022/11/21 08:47:11;;;;;;;30.67;18.90;;;1.40;99.90;;;;;;5066722;28;20052;-79
2022/11/21 08:49:37;;;;;;;30.17;19.17;;;1.40;99.90;;;;;;5064693;28;20032;-78
2022/11/21 08:52:03;;;;;;;40.30;21.48;;;2.30;99.90;;;;;;5065762;28;20060;-78
2022/11/21 08:54:31;;;;;;;33.28;21.20;;;1.10;99.90;;;;;;5053358;28;20258;-79
2022/11/21 08:56:57;;;;;;;29.63;18.35;;;3.60;99.90;;;;;;5062851;28;20029;-79
2022/11/21 08:59:22;;;;;;;34.92;18.05;;;3.50;99.90;;;;;;5051695;28;20116;-78
2022/11/21 09:01:48;;;;;;;33.05;19.58;;;2.00;99.90;;;;;;5081297;28;20031;-78
2022/11/21 09:04:14;;;;;;;31.80;19.13;;;3.20;99.90;;;;;;5062612;28;20068;-80
2022/11/21 09:06:40;;;;;;;24.05;14.55;;;1.30;99.90;;;;;;5046578;28;20100;-79
2022/11/21 09:09:06;;;;;;;29.15;17.45;;;1.60;99.90;;;;;;5041749;28;20032;-78
2022/11/21 09:11:32;;;;;;;33.03;19.63;;;1.10;99.90;;;;;;5053400;28;20087;-78
2022/11/21 09:19:50;;;;;;;26.98;17.00;;;1.60;99.90;;;;;;5062704;28;20240;-79
2022/11/21 09:22:16;;;;;;;26.98;15.68;;;1.20;99.90;;;;;;5031317;28;20035;-79
2022/11/21 09:24:42;;;;;;;28.35;16.85;;;3.90;99.90;;;;;;5074195;28;20040;-80
2022/11/21 09:27:07;;;;;;;25.45;15.63;;;3.90;99.90;;;;;;5054078;28;20397;-80
2022/11/21 09:29:33;;;;;;;31.00;18.13;;;1.60;99.90;;;;;;5029023;28;20029;-81
2022/11/21 09:32:01;;;;;;;25.40;15.13;;;1.30;99.90;;;;;;5036735;28;20036;-82
2022/11/21 09:34:27;;;;;;;35.97;20.92;;;1.20;99.90;;;;;;5063256;28;20039;-79
2022/11/21 09:36:54;;;;;;;29.65;17.45;;;1.30;99.90;;;;;;5061766;28;20279;-80
2022/11/21 09:39:20;;;;;;;31.05;19.30;;;3.30;99.90;;;;;;5065313;28;20024;-81
2022/11/21 09:42:17;;;;;;;35.17;21.27;;;1.30;99.90;;;;;;5065889;28;20040;-78
2022/11/21 09:45:18;;;;;;;24.65;14.02;;;1.20;99.90;;;;;;5064263;28;20386;-80
2022/11/21 09:47:48;;;;;;;33.78;19.88;;;1.30;99.90;;;;;;5067451;28;20227;-82
2022/11/21 09:50:13;;;;;;;33.53;19.40;;;1.30;99.90;;;;;;5045316;28;20091;-78
2022/11/21 09:52:47;;;;;;;31.05;17.73;;;1.30;99.90;;;;;;5045514;28;20061;-78
2022/11/21 09:55:28;;;;;;;27.13;15.27;;;2.50;99.90;;;;;;5053756;28;20138;-81
2022/11/21 09:57:54;;;;;;;32.80;19.08;;;1.40;99.90;;;;;;5077869;28;20219;-81
2022/11/21 10:00:24;;;;;;;29.73;18.90;;;1.40;99.90;;;;;;5064293;28;20096;-77
2022/11/21 10:02:51;;;;;;;31.48;18.40;;;1.40;99.90;;;;;;5061526;28;20072;-80
2022/11/21 10:05:28;;;;;;;27.55;16.92;;;1.80;99.90;;;;;;5058249;28;20083;-78
2022/11/21 10:08:03;;;;;;;23.45;14.68;;;1.50;99.90;;;;;;5064249;28;20294;-78
2022/11/21 10:10:46;;;;;;;32.45;18.65;;;1.50;99.90;;;;;;5082856;28;20341;-77
2022/11/21 10:13:18;;;;;;;29.00;17.40;;;1.60;99.90;;;;;;5064455;28;20112;-78
2022/11/21 10:15:51;;;;;;;31.35;15.02;;;4.00;99.90;;;;;;5062209;28;20133;-78
2022/11/21 10:18:43;;;;;;;26.65;16.02;;;1.70;99.90;;;;;;5084665;28;20346;-84
2022/11/21 10:21:24;;;;;;;22.10;11.73;;;1.70;99.90;;;;;;5046729;28;20109;-80
2022/11/21 10:24:11;;;;;;;27.20;15.20;;;1.90;99.90;;;;;;5094514;28;20215;-84
2022/11/21 10:26:53;;;;;;;24.60;14.73;;;1.90;99.90;;;;;;5058217;28;20047;-77
2022/11/21 10:29:31;;;;;;;25.40;15.63;;;1.80;99.90;;;;;;5069971;28;20032;-75
2022/11/21 10:32:02;;;;;;;30.30;17.60;;;1.90;99.90;;;;;;5080820;28;20028;-78
2022/11/21 10:34:36;;;;;;;32.22;18.45;;;1.80;99.90;;;;;;5080372;28;20071;-82
2022/11/21 10:37:36;;;;;;;24.33;16.37;;;2.10;99.90;;;;;;5070850;28;20299;-78
2022/11/21 10:40:35;;;;;;;27.42;18.15;;;2.70;99.90;;;;;;5062149;28;20295;-78
2022/11/21 10:46:09;;;;;;;26.50;15.15;;;2.70;99.90;;;;;;5066397;28;20044;-75
2022/11/21 10:48:35;;;;;;;26.40;15.30;;;2.30;99.90;;;;;;5024997;28;20094;-79
2022/11/21 10:51:36;;;;;;;27.33;15.68;;;2.20;99.90;;;;;;5062550;28;20146;-77
2022/11/21 10:56:55;;;;;;;24.48;13.60;;;2.20;99.90;;;;;;5072841;28;20041;-78
2022/11/21 10:59:29;;;;;;;27.85;15.63;;;2.10;99.90;;;;;;5076650;28;20036;-76
2022/11/21 11:02:01;;;;;;;25.63;15.47;;;2.10;99.90;;;;;;5060402;28;20028;-73
2022/11/21 11:04:28;;;;;;;25.65;14.93;;;2.10;99.90;;;;;;5079885;28;20024;-78
2022/11/21 11:06:54;;;;;;;21.73;12.15;;;3.70;99.90;;;;;;5050818;28;20063;-75
2022/11/21 11:09:28;;;;;;;28.33;16.30;;;2.20;99.90;;;;;;5080731;28;20366;-78
2022/11/21 11:15:23;;;;;;;28.45;16.63;;;2.20;99.90;;;;;;5034153;28;20032;-77
2022/11/21 11:17:53;;;;;;;23.25;14.75;;;2.30;99.90;;;;;;5071860;28;20219;-79
2022/11/21 11:20:38;;;;;;;19.67;12.75;;;2.30;99.90;;;;;;5078662;28;20329;-76
2022/11/21 11:23:19;;;;;;;24.38;14.93;;;2.40;99.90;;;;;;5052801;28;20039;-78
2022/11/21 11:25:51;;;;;;;26.33;15.73;;;3.20;99.90;;;;;;5078723;28;21314;-75
2022/11/21 11:28:22;;;;;;;21.65;13.27;;;2.60;99.90;;;;;;5065922;28;20072;-79
2022/11/21 11:30:49;;;;;;;19.98;12.40;;;4.90;99.90;;;;;;5079653;28;20068;-77
2022/11/21 11:33:33;;;;;;;23.63;14.50;;;3.10;99.90;;;;;;5079147;28;20036;-75
2022/11/21 11:36:20;;;;;;;25.10;14.40;;;3.30;99.90;;;;;;5053200;28;20082;-76
2022/11/21 11:38:55;;;;;;;22.67;14.93;;;3.50;99.90;;;;;;5074032;28;20029;-79
2022/11/21 11:47:29;;;;;;;19.80;11.98;;;4.20;99.90;;;;;;5048536;28;20043;-80
2022/11/21 11:47:29;;;;;;;15.35;8.55;;;3.40;99.90;;;;;;5068042;28;20044;-81
2022/11/21 11:50:12;;;;;;;20.73;12.63;;;3.70;99.90;;;;;;5056737;28;20081;-78
2022/11/21 11:52:47;;;;;;;22.08;12.60;;;3.50;99.90;;;;;;5072493;28;20059;-79
2022/11/21 11:55:40;;;;;;;18.48;12.40;;;3.60;99.90;;;;;;5056140;28;20064;-76
2022/11/21 11:58:45;;;;;;;16.42;10.50;;;3.60;99.90;;;;;;5069768;28;20124;-78
2022/11/21 12:01:29;;;;;;;12.27;8.40;;;3.60;99.90;;;;;;5042566;28;20048;-75
2022/11/21 12:04:18;;;;;;;16.85;10.98;;;5.70;99.90;;;;;;5076651;28;20036;-80
2022/11/21 12:06:47;;;;;;;17.85;12.60;;;3.50;99.90;;;;;;5064078;28;20028;-80
2022/11/21 12:09:36;;;;;;;18.30;11.40;;;6.20;99.90;;;;;;5048552;28;20085;-80
2022/11/21 12:12:25;;;;;;;15.50;9.95;;;3.70;99.90;;;;;;5100444;28;20057;-81
2022/11/21 12:18:14;;;;;;;17.63;10.93;;;3.60;99.90;;;;;;5077629;28;20085;-79
2022/11/21 12:20:55;;;;;;;21.15;12.65;;;3.70;99.90;;;;;;5065470;28;20040;-79
2022/11/21 12:23:26;;;;;;;16.80;10.30;;;3.80;99.90;;;;;;5094240;28;20041;-79
2022/11/21 12:26:17;;;;;;;16.65;10.25;;;3.70;99.90;;;;;;5072232;28;20029;-80
2022/11/21 12:28:42;;;;;;;17.90;11.05;;;3.60;99.90;;;;;;5077452;28;20103;-81
2022/11/21 12:31:24;;;;;;;18.30;10.63;;;4.60;99.90;;;;;;5048251;28;20036;-80
2022/11/21 12:34:03;;;;;;;15.30;9.68;;;3.50;99.90;;;;;;5085326;28;20029;-79
2022/11/21 12:36:43;;;;;;;17.13;11.30;;;3.40;99.90;;;;;;5047818;28;20060;-80
2022/11/21 12:39:38;;;;;;;24.58;14.27;;;3.40;99.90;;;;;;5061117;28;20051;-80
2022/11/21 12:42:48;;;;;;;21.58;14.05;;;3.30;99.90;;;;;;5067674;28;20033;-80
2022/11/21 12:45:31;;;;;;;19.50;12.82;;;3.30;99.90;;;;;;5065592;28;20119;-80
2022/11/21 12:54:36;;;;;;;19.00;11.20;;;3.20;99.90;;;;;;5060029;28;20047;-79
2022/11/21 12:57:13;;;;;;;23.73;13.65;;;5.00;99.90;;;;;;5048660;28;20322;-79
2022/11/21 13:00:10;;;;;;;18.63;10.07;;;3.10;99.90;;;;;;5044981;28;20256;-80
2022/11/21 13:03:34;;;;;;;17.65;8.88;;;3.10;99.90;;;;;;5049126;28;20024;-80
2022/11/21 13:06:02;;;;;;;15.18;9.93;;;3.10;99.90;;;;;;5042890;28;20029;-83
2022/11/21 13:08:33;;;;;;;15.00;9.13;;;5.20;99.90;;;;;;5084103;28;20039;-78
2022/11/21 13:14:14;;;;;;;15.25;9.93;;;3.10;99.90;;;;;;5077346;28;20032;-76
2022/11/21 13:16:45;;;;;;;16.70;11.07;;;3.10;99.90;;;;;;5088813;28;20037;-81
2022/11/21 13:19:26;;;;;;;17.50;11.73;;;3.50;99.90;;;;;;5072468;28;20249;-79
2022/11/21 13:21:53;;;;;;;18.95;10.38;;;3.30;99.90;;;;;;5093436;28;20089;-83
2022/11/21 13:24:47;;;;;;;18.60;10.82;;;3.30;99.90;;;;;;5061555;28;20035;-79
2022/11/21 13:27:37;;;;;;;16.80;10.82;;;3.40;99.90;;;;;;5095998;28;20128;-78
2022/11/21 13:30:05;;;;;;;12.95;7.93;;;3.40;99.90;;;;;;5077411;28;20032;-76
2022/11/21 13:32:39;;;;;;;15.00;8.00;;;4.10;99.90;;;;;;5061276;28;20361;-79
2022/11/21 13:35:20;;;;;;;13.32;8.90;;;3.50;99.90;;;;;;5069405;28;20075;-73
2022/11/21 13:37:48;;;;;;;18.67;10.90;;;3.60;99.90;;;;;;5067260;28;20053;-76
2022/11/21 13:40:26;;;;;;;17.08;10.52;;;3.60;99.90;;;;;;5055660;28;20111;-80
2022/11/21 13:43:08;;;;;;;16.23;9.07;;;3.60;99.90;;;;;;5064440;28;20207;-79
2022/11/21 13:45:44;;;;;;;14.23;8.77;;;3.60;99.90;;;;;;5062528;28;20104;-78